TUP9612 UHMP-UHMA
Flight info
| Callsign | TUP9612 |
|---|---|
| Flight time | 1h 14m |
| Altitude | 32000 |
| Route | ARBO1B ARBOM W80 GERBI GERB1P |
| Aircraft | B75F/M-SBDFGM3RWXY/LB1 |
Departure
| Time | 2026-04-22 10:26 |
|---|---|
| Airport | Pevek Airport (UHMP) |
Arrival
| Time | 2026-04-22 11:40 |
|---|---|
| Airport | Ugolny Yuri Ryktheu Airport (UHMA) |
| Time | Latitude | Longitude | Altitude | Speed | Heading |
|---|---|---|---|---|---|
| 2026-04-22 09:57 | 69.78726 | 170.60182 | 15 ft | 0 kts | 285° |
| 2026-04-22 10:20 | 69.78732 | 170.60138 | 15 ft | 7 kts | 297° |
| 2026-04-22 10:20 | 69.78786 | 170.60042 | 15 ft | 8 kts | 342° |
| 2026-04-22 10:21 | 69.78836 | 170.59973 | 15 ft | 7 kts | 306° |
| 2026-04-22 10:21 | 69.78836 | 170.59813 | 15 ft | 9 kts | 257° |
| 2026-04-22 10:21 | 69.78831 | 170.59746 | 15 ft | 0 kts | 258° |
| 2026-04-22 10:22 | 69.78830 | 170.59732 | 15 ft | 3 kts | 258° |
| 2026-04-22 10:22 | 69.78817 | 170.59567 | 15 ft | 11 kts | 257° |
| 2026-04-22 10:22 | 69.78828 | 170.59351 | 15 ft | 10 kts | 320° |
| 2026-04-22 10:23 | 69.78895 | 170.59283 | 15 ft | 9 kts | 348° |
| 2026-04-22 10:23 | 69.78968 | 170.59239 | 15 ft | 11 kts | 348° |
| 2026-04-22 10:23 | 69.79053 | 170.59178 | 15 ft | 13 kts | 347° |
| 2026-04-22 10:23 | 69.79156 | 170.59111 | 15 ft | 16 kts | 348° |
| 2026-04-22 10:24 | 69.79275 | 170.59045 | 15 ft | 18 kts | 350° |
| 2026-04-22 10:24 | 69.79376 | 170.59045 | 15 ft | 7 kts | 5° |
| 2026-04-22 10:24 | 69.79388 | 170.58995 | 15 ft | 1 kts | 231° |
| 2026-04-22 10:24 | 69.79366 | 170.58978 | 15 ft | 5 kts | 184° |
| 2026-04-22 10:25 | 69.79336 | 170.58984 | 15 ft | 0 kts | 168° |
| 2026-04-22 10:25 | 69.79334 | 170.58986 | 15 ft | 4 kts | 168° |
| 2026-04-22 10:25 | 69.79081 | 170.59160 | 15 ft | 72 kts | 166° |
| 2026-04-22 10:26 | 69.78362 | 170.59647 | 15 ft | 137 kts | 165° |
| 2026-04-22 10:26 | 69.77270 | 170.60336 | 202 ft | 177 kts | 163° |
| 2026-04-22 10:26 | 69.76004 | 170.61159 | 693 ft | 198 kts | 162° |
| 2026-04-22 10:26 | 69.74706 | 170.62547 | 1462 ft | 199 kts | 150° |
| 2026-04-22 10:27 | 69.73553 | 170.64639 | 2010 ft | 196 kts | 140° |
| 2026-04-22 10:27 | 69.72521 | 170.67058 | 2609 ft | 191 kts | 139° |
| 2026-04-22 10:27 | 69.71504 | 170.69386 | 3152 ft | 188 kts | 141° |
| 2026-04-22 10:27 | 69.70475 | 170.71571 | 3482 ft | 197 kts | 143° |
| 2026-04-22 10:28 | 69.69360 | 170.73845 | 3890 ft | 201 kts | 142° |
| 2026-04-22 10:28 | 69.68285 | 170.76395 | 4421 ft | 199 kts | 137° |
| 2026-04-22 10:28 | 69.67255 | 170.79060 | 4824 ft | 204 kts | 139° |
| 2026-04-22 10:28 | 69.66147 | 170.81584 | 5311 ft | 204 kts | 143° |
| 2026-04-22 10:29 | 69.64971 | 170.83984 | 5671 ft | 215 kts | 145° |
| 2026-04-22 10:29 | 69.63677 | 170.86459 | 5943 ft | 231 kts | 147° |
| 2026-04-22 10:29 | 69.62299 | 170.88989 | 6366 ft | 243 kts | 147° |
| 2026-04-22 10:29 | 69.60825 | 170.91628 | 7019 ft | 254 kts | 148° |
| 2026-04-22 10:30 | 69.59354 | 170.94226 | 7772 ft | 257 kts | 148° |
| 2026-04-22 10:30 | 69.57816 | 170.96919 | 8958 ft | 265 kts | 148° |
| 2026-04-22 10:30 | 69.56307 | 170.99548 | 9856 ft | 258 kts | 148° |
| 2026-04-22 10:30 | 69.54720 | 171.02309 | 10204 ft | 278 kts | 148° |
| 2026-04-22 10:31 | 69.53085 | 171.05139 | 10982 ft | 283 kts | 148° |
| 2026-04-22 10:31 | 69.51329 | 171.08179 | 11063 ft | 306 kts | 148° |
| 2026-04-22 10:31 | 69.49446 | 171.11426 | 11080 ft | 330 kts | 148° |
| 2026-04-22 10:31 | 69.47432 | 171.14890 | 11481 ft | 340 kts | 148° |
| 2026-04-22 10:32 | 69.45414 | 171.18349 | 12181 ft | 341 kts | 148° |
| 2026-04-22 10:32 | 69.43343 | 171.21892 | 12746 ft | 345 kts | 148° |
| 2026-04-22 10:32 | 69.41308 | 171.25366 | 13338 ft | 348 kts | 148° |
| 2026-04-22 10:32 | 69.39236 | 171.28896 | 13892 ft | 351 kts | 148° |
| 2026-04-22 10:33 | 69.37127 | 171.32481 | 14449 ft | 353 kts | 148° |
| 2026-04-22 10:33 | 69.35028 | 171.36041 | 14977 ft | 356 kts | 148° |
| 2026-04-22 10:33 | 69.32911 | 171.39624 | 15494 ft | 358 kts | 148° |
| 2026-04-22 10:33 | 69.30755 | 171.43268 | 16001 ft | 361 kts | 148° |
| 2026-04-22 10:34 | 69.28619 | 171.46869 | 16485 ft | 363 kts | 148° |
| 2026-04-22 10:34 | 69.26434 | 171.50542 | 16964 ft | 366 kts | 148° |
| 2026-04-22 10:34 | 69.24239 | 171.54224 | 17430 ft | 368 kts | 148° |
| 2026-04-22 10:34 | 69.22053 | 171.57881 | 17889 ft | 371 kts | 148° |
| 2026-04-22 10:35 | 69.19836 | 171.61583 | 18343 ft | 373 kts | 148° |
| 2026-04-22 10:35 | 69.17616 | 171.65280 | 18790 ft | 375 kts | 149° |
| 2026-04-22 10:35 | 69.15374 | 171.69005 | 19229 ft | 378 kts | 149° |
| 2026-04-22 10:35 | 69.13106 | 171.72765 | 19670 ft | 380 kts | 149° |
| 2026-04-22 10:36 | 69.10827 | 171.76533 | 20103 ft | 382 kts | 149° |
| 2026-04-22 10:36 | 69.08530 | 171.80322 | 20530 ft | 384 kts | 149° |
| 2026-04-22 10:36 | 69.06251 | 171.84071 | 20945 ft | 387 kts | 149° |
| 2026-04-22 10:36 | 69.03915 | 171.87904 | 21364 ft | 389 kts | 149° |
| 2026-04-22 10:37 | 69.01607 | 171.91684 | 21767 ft | 391 kts | 149° |
| 2026-04-22 10:37 | 68.96891 | 171.99376 | 22563 ft | 395 kts | 149° |
| 2026-04-22 10:37 | 68.94497 | 172.03265 | 22954 ft | 398 kts | 149° |
| 2026-04-22 10:38 | 68.92125 | 172.07111 | 23331 ft | 400 kts | 149° |
| 2026-04-22 10:38 | 68.89709 | 172.11017 | 23709 ft | 402 kts | 149° |
| 2026-04-22 10:38 | 68.87308 | 172.14890 | 24077 ft | 404 kts | 149° |
| 2026-04-22 10:38 | 68.84878 | 172.18797 | 24442 ft | 406 kts | 149° |
| 2026-04-22 10:39 | 68.82413 | 172.22751 | 24800 ft | 409 kts | 149° |
| 2026-04-22 10:39 | 68.79964 | 172.26671 | 25153 ft | 411 kts | 149° |
| 2026-04-22 10:39 | 68.77505 | 172.30595 | 25497 ft | 413 kts | 149° |
| 2026-04-22 10:39 | 68.75021 | 172.34551 | 25836 ft | 415 kts | 149° |
| 2026-04-22 10:40 | 68.72516 | 172.38527 | 26173 ft | 417 kts | 149° |
| 2026-04-22 10:40 | 68.69994 | 172.42522 | 26505 ft | 420 kts | 149° |
| 2026-04-22 10:40 | 68.67457 | 172.46529 | 26833 ft | 422 kts | 149° |
| 2026-04-22 10:40 | 68.64927 | 172.50514 | 27151 ft | 424 kts | 149° |
| 2026-04-22 10:41 | 68.62371 | 172.54529 | 27468 ft | 426 kts | 150° |
| 2026-04-22 10:41 | 68.59804 | 172.58553 | 27780 ft | 428 kts | 150° |
| 2026-04-22 10:41 | 68.57224 | 172.62585 | 28085 ft | 431 kts | 150° |
| 2026-04-22 10:41 | 68.54617 | 172.66646 | 28389 ft | 433 kts | 151° |
| 2026-04-22 10:42 | 68.52000 | 172.70715 | 28689 ft | 435 kts | 151° |
| 2026-04-22 10:42 | 68.49379 | 172.74779 | 28980 ft | 437 kts | 151° |
| 2026-04-22 10:42 | 68.46748 | 172.78848 | 29294 ft | 438 kts | 151° |
| 2026-04-22 10:42 | 68.44095 | 172.82977 | 29717 ft | 437 kts | 150° |
| 2026-04-22 10:43 | 68.41483 | 172.87047 | 30173 ft | 435 kts | 150° |
| 2026-04-22 10:43 | 68.38873 | 172.91103 | 30596 ft | 433 kts | 150° |
| 2026-04-22 10:43 | 68.36265 | 172.95145 | 31025 ft | 431 kts | 150° |
| 2026-04-22 10:43 | 68.33695 | 172.99116 | 31453 ft | 429 kts | 150° |
| 2026-04-22 10:44 | 68.31098 | 173.03119 | 31885 ft | 428 kts | 150° |
| 2026-04-22 10:44 | 68.28503 | 173.07109 | 32177 ft | 428 kts | 150° |
| 2026-04-22 10:44 | 68.25936 | 173.11043 | 32180 ft | 429 kts | 150° |
| 2026-04-22 10:45 | 68.20785 | 173.18909 | 32179 ft | 426 kts | 150° |
| 2026-04-22 10:45 | 68.15636 | 173.26732 | 32179 ft | 426 kts | 150° |
| 2026-04-22 10:46 | 68.10490 | 173.34509 | 32179 ft | 426 kts | 150° |
| 2026-04-22 10:46 | 68.05344 | 173.42246 | 32178 ft | 426 kts | 150° |
| 2026-04-22 10:47 | 68.00160 | 173.50000 | 32178 ft | 426 kts | 150° |
| 2026-04-22 10:47 | 67.95027 | 173.57640 | 32178 ft | 426 kts | 150° |
| 2026-04-22 10:48 | 67.89857 | 173.65294 | 32178 ft | 426 kts | 152° |
| 2026-04-22 10:48 | 67.84673 | 173.72928 | 32183 ft | 426 kts | 152° |
| 2026-04-22 10:49 | 67.79502 | 173.80507 | 32183 ft | 426 kts | 152° |
| 2026-04-22 10:49 | 67.74307 | 173.88080 | 32183 ft | 426 kts | 152° |
| 2026-04-22 10:50 | 67.69158 | 173.95548 | 32182 ft | 426 kts | 152° |
| 2026-04-22 10:50 | 67.63952 | 174.03061 | 32182 ft | 426 kts | 152° |
| 2026-04-22 10:51 | 67.58781 | 174.10486 | 32182 ft | 426 kts | 152° |
| 2026-04-22 10:51 | 67.53592 | 174.17900 | 32181 ft | 426 kts | 152° |
| 2026-04-22 10:52 | 67.48444 | 174.25526 | 32181 ft | 426 kts | 150° |
| 2026-04-22 10:52 | 67.43328 | 174.33226 | 32181 ft | 426 kts | 150° |
| 2026-04-22 10:53 | 67.38199 | 174.40900 | 32180 ft | 426 kts | 150° |
| 2026-04-22 10:53 | 67.33064 | 174.48398 | 32180 ft | 426 kts | 152° |
| 2026-04-22 10:54 | 67.27870 | 174.55631 | 32179 ft | 426 kts | 152° |
| 2026-04-22 10:54 | 67.22660 | 174.62865 | 32179 ft | 426 kts | 152° |
| 2026-04-22 10:55 | 67.17467 | 174.70039 | 32180 ft | 426 kts | 152° |
| 2026-04-22 10:55 | 67.12275 | 174.77179 | 32179 ft | 426 kts | 152° |
| 2026-04-22 10:56 | 67.07070 | 174.84300 | 32179 ft | 426 kts | 152° |
| 2026-04-22 10:56 | 67.01870 | 174.91408 | 32178 ft | 425 kts | 152° |
| 2026-04-22 10:57 | 66.96659 | 174.98567 | 32178 ft | 425 kts | 152° |
| 2026-04-22 10:57 | 66.91446 | 175.05690 | 32178 ft | 427 kts | 152° |
| 2026-04-22 10:58 | 66.86228 | 175.12785 | 32183 ft | 428 kts | 152° |
| 2026-04-22 10:58 | 66.80961 | 175.19911 | 32182 ft | 429 kts | 152° |
| 2026-04-22 10:59 | 66.75719 | 175.26968 | 32182 ft | 429 kts | 152° |
| 2026-04-22 10:59 | 66.70455 | 175.34021 | 32182 ft | 429 kts | 152° |
| 2026-04-22 11:00 | 66.65185 | 175.41048 | 32182 ft | 429 kts | 152° |
| 2026-04-22 11:00 | 66.59924 | 175.48030 | 32181 ft | 429 kts | 152° |
| 2026-04-22 11:01 | 66.54662 | 175.54979 | 32181 ft | 429 kts | 152° |
| 2026-04-22 11:01 | 66.49387 | 175.61911 | 32181 ft | 429 kts | 152° |
| 2026-04-22 11:02 | 66.44119 | 175.68802 | 32181 ft | 429 kts | 153° |
| 2026-04-22 11:02 | 66.38845 | 175.75665 | 32181 ft | 429 kts | 153° |
| 2026-04-22 11:03 | 66.33555 | 175.82520 | 32181 ft | 429 kts | 153° |
| 2026-04-22 11:03 | 66.28284 | 175.89339 | 31651 ft | 428 kts | 153° |
| 2026-04-22 11:03 | 66.25683 | 175.92694 | 31199 ft | 422 kts | 153° |
| 2026-04-22 11:04 | 66.23087 | 175.96033 | 30749 ft | 419 kts | 153° |
| 2026-04-22 11:04 | 66.20485 | 175.99373 | 30299 ft | 421 kts | 152° |
| 2026-04-22 11:04 | 66.17888 | 176.02698 | 29847 ft | 423 kts | 152° |
| 2026-04-22 11:04 | 66.15310 | 176.05992 | 29392 ft | 420 kts | 152° |
| 2026-04-22 11:05 | 66.12720 | 176.09293 | 28931 ft | 415 kts | 152° |
| 2026-04-22 11:05 | 66.10189 | 176.12511 | 28481 ft | 412 kts | 152° |
| 2026-04-22 11:05 | 66.07672 | 176.15704 | 28035 ft | 409 kts | 152° |
| 2026-04-22 11:05 | 66.05130 | 176.18922 | 27583 ft | 407 kts | 152° |
| 2026-04-22 11:06 | 66.02640 | 176.22067 | 27139 ft | 404 kts | 152° |
| 2026-04-22 11:06 | 66.00169 | 176.25183 | 26699 ft | 401 kts | 152° |
| 2026-04-22 11:06 | 65.97692 | 176.28297 | 26257 ft | 399 kts | 152° |
| 2026-04-22 11:06 | 65.95263 | 176.31346 | 25825 ft | 396 kts | 152° |
| 2026-04-22 11:07 | 65.92814 | 176.34395 | 25399 ft | 394 kts | 152° |
| 2026-04-22 11:07 | 65.90378 | 176.37383 | 24955 ft | 392 kts | 152° |
| 2026-04-22 11:07 | 65.87918 | 176.40393 | 24514 ft | 389 kts | 152° |
| 2026-04-22 11:07 | 65.85502 | 176.43347 | 24084 ft | 387 kts | 152° |
| 2026-04-22 11:08 | 65.83127 | 176.46243 | 23673 ft | 384 kts | 152° |
| 2026-04-22 11:08 | 65.80743 | 176.49156 | 23248 ft | 383 kts | 151° |
| 2026-04-22 11:08 | 65.78398 | 176.52022 | 22826 ft | 380 kts | 151° |
| 2026-04-22 11:08 | 65.76036 | 176.54901 | 22401 ft | 378 kts | 151° |
| 2026-04-22 11:09 | 65.73701 | 176.57741 | 21981 ft | 376 kts | 151° |
| 2026-04-22 11:09 | 65.71371 | 176.60570 | 21564 ft | 374 kts | 151° |
| 2026-04-22 11:09 | 65.69052 | 176.63379 | 21149 ft | 372 kts | 151° |
| 2026-04-22 11:09 | 65.66773 | 176.66136 | 20743 ft | 370 kts | 152° |
| 2026-04-22 11:10 | 65.64481 | 176.68901 | 20336 ft | 368 kts | 152° |
| 2026-04-22 11:10 | 65.62187 | 176.71663 | 19929 ft | 366 kts | 152° |
| 2026-04-22 11:10 | 65.59921 | 176.74387 | 19526 ft | 364 kts | 152° |
| 2026-04-22 11:10 | 65.57671 | 176.77086 | 19126 ft | 362 kts | 152° |
| 2026-04-22 11:11 | 65.55432 | 176.79767 | 18729 ft | 360 kts | 152° |
| 2026-04-22 11:11 | 65.53205 | 176.82428 | 18333 ft | 358 kts | 152° |
| 2026-04-22 11:11 | 65.50975 | 176.85088 | 17938 ft | 357 kts | 152° |
| 2026-04-22 11:11 | 65.48774 | 176.87707 | 17547 ft | 355 kts | 152° |
| 2026-04-22 11:12 | 65.46542 | 176.90282 | 17152 ft | 354 kts | 156° |
| 2026-04-22 11:12 | 65.44218 | 176.92056 | 16772 ft | 353 kts | 163° |
| 2026-04-22 11:12 | 65.41877 | 176.93602 | 16392 ft | 351 kts | 163° |
| 2026-04-22 11:12 | 65.39516 | 176.95169 | 16008 ft | 349 kts | 163° |
| 2026-04-22 11:13 | 65.37198 | 176.96696 | 15632 ft | 348 kts | 163° |
| 2026-04-22 11:13 | 65.34893 | 176.98209 | 15258 ft | 346 kts | 163° |
| 2026-04-22 11:13 | 65.32560 | 176.99734 | 14880 ft | 344 kts | 163° |
| 2026-04-22 11:13 | 65.30261 | 177.01234 | 14507 ft | 342 kts | 163° |
| 2026-04-22 11:14 | 65.27985 | 177.02718 | 14138 ft | 341 kts | 163° |
| 2026-04-22 11:14 | 65.25720 | 177.04190 | 13771 ft | 339 kts | 163° |
| 2026-04-22 11:14 | 65.23454 | 177.05661 | 13405 ft | 337 kts | 163° |
| 2026-04-22 11:14 | 65.21215 | 177.07111 | 13043 ft | 336 kts | 163° |
| 2026-04-22 11:15 | 65.18973 | 177.08560 | 12680 ft | 334 kts | 163° |
| 2026-04-22 11:15 | 65.16742 | 177.10001 | 12319 ft | 332 kts | 163° |
| 2026-04-22 11:15 | 65.14500 | 177.11444 | 11957 ft | 331 kts | 163° |
| 2026-04-22 11:15 | 65.12315 | 177.12849 | 11604 ft | 329 kts | 163° |
| 2026-04-22 11:16 | 65.10100 | 177.14272 | 11246 ft | 328 kts | 163° |
| 2026-04-22 11:16 | 65.07907 | 177.15675 | 10892 ft | 326 kts | 163° |
| 2026-04-22 11:16 | 65.05720 | 177.17076 | 10539 ft | 325 kts | 163° |
| 2026-04-22 11:16 | 65.03565 | 177.18453 | 10190 ft | 321 kts | 163° |
| 2026-04-22 11:17 | 65.01430 | 177.19812 | 9852 ft | 317 kts | 163° |
| 2026-04-22 11:17 | 64.99317 | 177.21158 | 9529 ft | 313 kts | 163° |
| 2026-04-22 11:17 | 64.97226 | 177.22487 | 9219 ft | 308 kts | 163° |
| 2026-04-22 11:17 | 64.95183 | 177.23784 | 8926 ft | 304 kts | 163° |
| 2026-04-22 11:18 | 64.93163 | 177.25063 | 8647 ft | 299 kts | 162° |
| 2026-04-22 11:18 | 64.91170 | 177.26325 | 8383 ft | 295 kts | 162° |
| 2026-04-22 11:18 | 64.89188 | 177.27577 | 8132 ft | 290 kts | 163° |
| 2026-04-22 11:18 | 64.87279 | 177.28780 | 7894 ft | 285 kts | 162° |
| 2026-04-22 11:19 | 64.85374 | 177.29979 | 7669 ft | 280 kts | 162° |
| 2026-04-22 11:19 | 64.83504 | 177.31155 | 7459 ft | 275 kts | 162° |
| 2026-04-22 11:19 | 64.81659 | 177.32310 | 7260 ft | 270 kts | 162° |
| 2026-04-22 11:19 | 64.79882 | 177.33424 | 7085 ft | 265 kts | 162° |
| 2026-04-22 11:20 | 64.78117 | 177.34531 | 6906 ft | 261 kts | 162° |
| 2026-04-22 11:20 | 64.76377 | 177.35622 | 6718 ft | 261 kts | 162° |
| 2026-04-22 11:20 | 64.76185 | 177.35742 | 6697 ft | 261 kts | 162° |
| 2026-04-22 11:22 | 64.76038 | 177.35834 | 6681 ft | 261 kts | 162° |
| 2026-04-22 11:23 | 64.74303 | 177.36917 | 6475 ft | 259 kts | 162° |
| 2026-04-22 11:23 | 64.72564 | 177.38002 | 6270 ft | 260 kts | 162° |
| 2026-04-22 11:23 | 64.70826 | 177.39088 | 6050 ft | 258 kts | 162° |
| 2026-04-22 11:23 | 64.69086 | 177.40169 | 5829 ft | 259 kts | 162° |
| 2026-04-22 11:24 | 64.67344 | 177.41249 | 5605 ft | 258 kts | 162° |
| 2026-04-22 11:24 | 64.65620 | 177.42320 | 5362 ft | 256 kts | 162° |
| 2026-04-22 11:24 | 64.63906 | 177.43382 | 5120 ft | 257 kts | 161° |
| 2026-04-22 11:24 | 64.62168 | 177.44455 | 4878 ft | 256 kts | 161° |
| 2026-04-22 11:25 | 64.61281 | 177.45004 | 4755 ft | 255 kts | 162° |
| 2026-04-22 11:26 | 64.60305 | 177.45605 | 4610 ft | 255 kts | 162° |
| 2026-04-22 11:26 | 64.58591 | 177.46664 | 4304 ft | 256 kts | 162° |
| 2026-04-22 11:27 | 64.56863 | 177.47726 | 4013 ft | 257 kts | 162° |
| 2026-04-22 11:27 | 64.55157 | 177.48906 | 3747 ft | 255 kts | 152° |
| 2026-04-22 11:27 | 64.53806 | 177.51337 | 3505 ft | 243 kts | 122° |
| 2026-04-22 11:27 | 64.53214 | 177.54828 | 3368 ft | 230 kts | 90° |
| 2026-04-22 11:28 | 64.53502 | 177.58408 | 3226 ft | 227 kts | 58° |
| 2026-04-22 11:28 | 64.54560 | 177.61043 | 3023 ft | 224 kts | 30° |
| 2026-04-22 11:28 | 64.55926 | 177.62706 | 2817 ft | 222 kts | 27° |
| 2026-04-22 11:28 | 64.57286 | 177.64436 | 2485 ft | 227 kts | 24° |
| 2026-04-22 11:29 | 64.58778 | 177.65410 | 2433 ft | 217 kts | 12° |
| 2026-04-22 11:29 | 64.60217 | 177.66154 | 2426 ft | 205 kts | 15° |
| 2026-04-22 11:29 | 64.61560 | 177.66832 | 2432 ft | 194 kts | 13° |
| 2026-04-22 11:29 | 64.62843 | 177.67523 | 2427 ft | 183 kts | 16° |
| 2026-04-22 11:30 | 64.64040 | 177.68234 | 2429 ft | 172 kts | 16° |
| 2026-04-22 11:30 | 64.65147 | 177.68918 | 2417 ft | 161 kts | 16° |
| 2026-04-22 11:30 | 64.66209 | 177.69597 | 2431 ft | 155 kts | 17° |
| 2026-04-22 11:30 | 64.67255 | 177.70338 | 2448 ft | 156 kts | 15° |
| 2026-04-22 11:31 | 64.68317 | 177.70039 | 2358 ft | 163 kts | 330° |
| 2026-04-22 11:31 | 64.69192 | 177.68127 | 2174 ft | 176 kts | 320° |
| 2026-04-22 11:31 | 64.70014 | 177.66161 | 2200 ft | 166 kts | 319° |
| 2026-04-22 11:31 | 64.70821 | 177.64250 | 2197 ft | 164 kts | 321° |
| 2026-04-22 11:32 | 64.71600 | 177.62383 | 2222 ft | 162 kts | 320° |
| 2026-04-22 11:32 | 64.72405 | 177.60480 | 2203 ft | 165 kts | 319° |
| 2026-04-22 11:32 | 64.73222 | 177.58511 | 2203 ft | 167 kts | 321° |
| 2026-04-22 11:32 | 64.74022 | 177.56576 | 2199 ft | 165 kts | 320° |
| 2026-04-22 11:33 | 64.74826 | 177.54629 | 2208 ft | 167 kts | 320° |
| 2026-04-22 11:33 | 64.75631 | 177.52689 | 2195 ft | 166 kts | 320° |
| 2026-04-22 11:33 | 64.76430 | 177.50743 | 2195 ft | 165 kts | 319° |
| 2026-04-22 11:33 | 64.77208 | 177.48825 | 2185 ft | 159 kts | 320° |
| 2026-04-22 11:34 | 64.78078 | 177.47501 | 2194 ft | 147 kts | 353° |
| 2026-04-22 11:34 | 64.79086 | 177.47749 | 2212 ft | 148 kts | 21° |
| 2026-04-22 11:34 | 64.79987 | 177.48871 | 2198 ft | 146 kts | 34° |
| 2026-04-22 11:34 | 64.80789 | 177.50258 | 2228 ft | 141 kts | 37° |
| 2026-04-22 11:35 | 64.81578 | 177.51643 | 2222 ft | 140 kts | 36° |
| 2026-04-22 11:35 | 64.82293 | 177.52919 | 2154 ft | 120 kts | 36° |
| 2026-04-22 11:35 | 64.82928 | 177.54149 | 2196 ft | 120 kts | 46° |
| 2026-04-22 11:35 | 64.83370 | 177.55859 | 2202 ft | 120 kts | 66° |
| 2026-04-22 11:36 | 64.83604 | 177.57803 | 2202 ft | 125 kts | 72° |
| 2026-04-22 11:36 | 64.83813 | 177.59801 | 2194 ft | 123 kts | 70° |
| 2026-04-22 11:36 | 64.83942 | 177.61862 | 1988 ft | 129 kts | 85° |
| 2026-04-22 11:36 | 64.83781 | 177.63940 | 1738 ft | 130 kts | 104° |
| 2026-04-22 11:37 | 64.83454 | 177.65932 | 1613 ft | 127 kts | 104° |
| 2026-04-22 11:37 | 64.83057 | 177.67830 | 1729 ft | 137 kts | 112° |
| 2026-04-22 11:37 | 64.82622 | 177.69781 | 1782 ft | 136 kts | 111° |
| 2026-04-22 11:37 | 64.82137 | 177.71706 | 1755 ft | 135 kts | 116° |
| 2026-04-22 11:38 | 64.81600 | 177.73566 | 1621 ft | 137 kts | 118° |
| 2026-04-22 11:38 | 64.81064 | 177.75418 | 1460 ft | 135 kts | 117° |
| 2026-04-22 11:38 | 64.79414 | 177.77576 | 1459 ft | 157 kts | 185° |
| 2026-04-22 11:39 | 64.78366 | 177.77074 | 1188 ft | 151 kts | 190° |
| 2026-04-22 11:39 | 64.77339 | 177.76498 | 936 ft | 154 kts | 193° |
| 2026-04-22 11:39 | 64.76314 | 177.75873 | 636 ft | 153 kts | 194° |
| 2026-04-22 11:39 | 64.75294 | 177.75252 | 363 ft | 153 kts | 193° |
| 2026-04-22 11:40 | 64.74269 | 177.74634 | 183 ft | 151 kts | 192° |
| 2026-04-22 11:40 | 64.73256 | 177.74002 | 169 ft | 154 kts | 192° |
| 2026-04-22 11:40 | 64.72353 | 177.73467 | 161 ft | 100 kts | 194° |
| 2026-04-22 11:40 | 64.71868 | 177.73192 | 161 ft | 45 kts | 181° |
| 2026-04-22 11:41 | 64.71673 | 177.73508 | 160 ft | 27 kts | 114° |
| 2026-04-22 11:41 | 64.71601 | 177.73846 | 160 ft | 15 kts | 96° |
| 2026-04-22 11:41 | 64.71600 | 177.73924 | 160 ft | 0 kts | 91° |